createdAt,value
2023-01-19T00:04:12.079Z,95743.44
2023-01-19T00:09:15.465Z,95679.09
2023-01-19T00:14:19.114Z,95737.94
2023-01-19T00:19:24.786Z,95782.00
2023-01-19T00:24:28.092Z,95815.63
2023-01-19T00:29:35.286Z,95847.56
2023-01-19T00:34:40.446Z,95805.78
2023-01-19T00:39:44.750Z,95830.06
2023-01-19T00:44:48.308Z,95785.81
2023-01-19T00:49:51.854Z,95818.72
2023-01-19T00:54:55.222Z,95766.81
2023-01-19T00:59:58.658Z,95696.78
2023-01-19T01:05:03.875Z,95719.56
2023-01-19T01:10:12.890Z,95645.81
2023-01-19T01:15:18.127Z,95844.88
2023-01-19T01:20:28.922Z,95746.94
2023-01-19T01:25:34.954Z,95786.78
2023-01-19T01:30:48.547Z,95820.53
2023-01-19T01:35:52.877Z,95770.97
2023-01-19T01:40:56.441Z,95695.78
2023-01-19T01:46:09.800Z,95786.72
2023-01-19T01:51:27.330Z,95681.34
2023-01-19T01:56:38.870Z,95826.63
2023-01-19T02:02:01.267Z,95716.09
2023-01-19T02:07:23.686Z,95768.56
2023-01-19T02:12:46.657Z,95802.56
2023-01-19T02:17:51.230Z,95796.56
2023-01-19T02:22:58.394Z,95833.25
2023-01-19T02:28:02.261Z,95860.22
2023-01-19T02:33:05.605Z,95743.69
2023-01-19T02:38:21.654Z,95801.66
2023-01-19T02:43:25.984Z,95770.97
2023-01-19T02:48:29.527Z,95828.91
2023-01-19T02:54:10.597Z,95828.56
2023-01-19T02:59:38.072Z,95837.88
2023-01-19T03:04:57.289Z,95776.50
2023-01-19T03:10:07.870Z,95740.59
2023-01-19T03:15:40.477Z,95839.91
2023-01-19T03:20:45.929Z,95814.88
2023-01-19T03:25:51.518Z,95852.25
2023-01-19T03:31:11.888Z,95779.31
2023-01-19T03:36:34.768Z,95875.88
2023-01-19T03:41:40.760Z,95873.84
2023-01-19T03:46:55.522Z,95810.53
2023-01-19T03:52:00.164Z,95878.88
2023-01-19T03:57:03.737Z,95663.00
2023-01-19T04:02:07.360Z,95889.06
2023-01-19T04:07:12.106Z,95876.47
2023-01-19T04:12:17.745Z,95837.56
2023-01-19T04:17:21.706Z,95897.97
2023-01-19T04:22:25.696Z,95761.19
2023-01-19T04:27:30.001Z,95893.19
2023-01-19T04:32:33.853Z,95847.13
2023-01-19T04:37:37.553Z,95858.38
2023-01-19T04:42:45.944Z,95927.38
2023-01-19T04:47:51.528Z,95798.03
2023-01-19T04:52:55.146Z,95776.97
2023-01-19T04:58:02.032Z,95875.94
2023-01-19T05:03:06.077Z,95864.00
2023-01-19T05:08:13.221Z,95892.84
2023-01-19T05:13:22.769Z,95922.53
2023-01-19T05:18:26.040Z,95909.69
2023-01-19T05:23:29.311Z,95946.88
2023-01-19T05:28:34.298Z,95949.28
2023-01-19T05:33:37.629Z,95913.88
2023-01-19T05:38:58.700Z,95958.06
2023-01-19T05:44:02.075Z,95963.22
2023-01-19T05:49:15.725Z,95929.19
2023-01-19T05:54:29.234Z,95901.44
2023-01-19T05:59:38.406Z,95961.22
2023-01-19T06:04:42.186Z,95968.41
2023-01-19T06:09:45.440Z,95922.66
2023-01-19T06:14:48.973Z,95985.66
2023-01-19T06:19:52.682Z,95972.66
2023-01-19T06:24:56.129Z,95998.56
2023-01-19T06:29:59.611Z,95945.03
2023-01-19T06:35:13.061Z,95973.91
2023-01-19T06:40:16.437Z,95857.63
2023-01-19T06:45:19.785Z,96033.00
2023-01-19T06:50:23.145Z,96026.97
2023-01-19T06:55:27.728Z,95969.22
2023-01-19T07:00:31.661Z,96029.91
2023-01-19T07:05:37.844Z,96101.94
2023-01-19T07:11:26.541Z,96127.75
2023-01-19T07:16:09.835Z,96085.09
2023-01-19T07:21:13.457Z,96135.50
2023-01-19T07:26:19.411Z,96157.38
2023-01-19T07:31:22.804Z,96194.56
2023-01-19T07:36:26.390Z,96174.91
2023-01-19T07:41:29.961Z,96223.34
2023-01-19T07:46:33.575Z,96122.81
2023-01-19T07:51:37.294Z,96174.78
2023-01-19T07:56:40.534Z,96182.81
2023-01-19T08:01:43.876Z,96231.44
2023-01-19T08:06:48.217Z,96248.25
2023-01-19T08:12:01.569Z,96234.47
2023-01-19T08:17:04.919Z,96211.41
2023-01-19T08:22:08.551Z,96244.72
2023-01-19T08:27:11.844Z,96141.56
2023-01-19T08:32:15.231Z,96210.88
2023-01-19T08:37:18.631Z,96227.69
2023-01-19T08:42:22.098Z,96218.31
2023-01-19T08:47:25.949Z,96243.38
2023-01-19T08:52:30.383Z,96192.47
2023-01-19T08:57:33.962Z,96229.13
2023-01-19T09:02:38.258Z,96247.72
2023-01-19T09:07:42.748Z,96262.09
2023-01-19T09:12:55.484Z,96243.38
2023-01-19T09:17:59.347Z,96297.19
2023-01-19T09:23:03.028Z,96300.25
2023-01-19T09:28:10.120Z,96308.28
2023-01-19T09:33:17.384Z,96311.63
2023-01-19T09:38:21.211Z,96270.66
2023-01-19T09:43:48.322Z,96338.38
2023-01-19T09:49:00.786Z,96278.09
2023-01-19T09:54:13.246Z,96326.56
2023-01-19T09:59:34.790Z,96321.97
2023-01-19T10:04:47.328Z,96355.59
2023-01-19T10:10:10.959Z,96343.59
2023-01-19T10:15:55.902Z,96344.44
2023-01-19T10:21:13.425Z,96352.66
2023-01-19T10:26:23.307Z,96351.50
2023-01-19T10:31:27.009Z,96250.09
2023-01-19T10:36:41.729Z,96260.56
2023-01-19T10:41:55.258Z,96275.53
2023-01-19T10:47:01.136Z,96315.75
2023-01-19T10:52:07.868Z,96341.19
2023-01-19T10:57:26.699Z,96254.06
2023-01-19T11:02:33.334Z,96345.47
2023-01-19T11:07:36.928Z,96303.75
2023-01-19T11:12:42.788Z,96284.19
2023-01-19T11:17:48.993Z,96234.63
2023-01-19T11:23:08.309Z,96353.66
2023-01-19T11:28:35.771Z,96355.06
2023-01-19T11:33:50.556Z,96353.44
2023-01-19T11:38:57.297Z,96287.91
2023-01-19T11:44:17.005Z,96344.91
2023-01-19T11:49:43.095Z,96403.13
2023-01-19T11:54:55.554Z,96356.19
2023-01-19T12:00:04.325Z,96285.13
2023-01-19T12:05:15.060Z,96417.47
2023-01-19T12:10:32.814Z,96402.09
2023-01-19T12:15:43.927Z,96261.47
2023-01-19T12:20:53.862Z,96384.09
2023-01-19T12:26:09.481Z,96422.13
2023-01-19T12:31:17.768Z,96427.09
2023-01-19T12:36:27.416Z,96440.03
2023-01-19T12:41:34.216Z,96342.31
2023-01-19T12:46:58.255Z,96420.44
2023-01-19T12:52:41.600Z,96413.19
2023-01-19T12:57:57.732Z,96332.81
2023-01-19T13:03:31.558Z,96412.28
2023-01-19T13:08:53.946Z,96381.06
2023-01-19T13:14:36.667Z,96374.50
2023-01-19T13:19:48.447Z,96346.69
2023-01-19T13:25:32.057Z,96363.25
2023-01-19T13:30:37.268Z,96185.81
2023-01-19T13:35:59.549Z,96296.00
2023-01-19T13:41:03.956Z,96345.47
2023-01-19T13:46:07.579Z,96417.44
2023-01-19T13:51:19.611Z,96417.22
2023-01-19T13:56:25.075Z,96398.06
2023-01-19T14:01:29.804Z,96227.91
2023-01-19T14:06:38.773Z,96405.06
2023-01-19T14:11:42.391Z,96155.56
2023-01-19T14:16:45.691Z,96293.50
2023-01-19T14:21:59.885Z,96385.63
2023-01-19T14:27:20.311Z,96412.38
2023-01-19T14:32:25.551Z,96431.50
2023-01-19T14:37:33.378Z,96439.25
2023-01-19T14:42:40.445Z,96410.66
2023-01-19T14:47:47.199Z,96369.28
2023-01-19T14:52:58.056Z,96219.19
2023-01-19T14:58:16.498Z,96432.22
2023-01-19T15:03:19.825Z,96407.09
2023-01-19T15:08:29.896Z,96368.25
2023-01-19T15:13:34.156Z,96207.34
2023-01-19T15:18:37.758Z,96359.47
2023-01-19T15:23:41.237Z,96301.53
2023-01-19T15:28:54.918Z,96370.91
2023-01-19T15:33:58.549Z,96384.25
2023-01-19T15:39:02.787Z,96360.78
2023-01-19T15:44:07.129Z,96234.09
2023-01-19T15:49:10.707Z,96196.16
2023-01-19T15:54:15.530Z,96428.69
2023-01-19T15:59:19.051Z,96418.00
2023-01-19T16:04:22.417Z,96294.75
2023-01-19T16:09:26.269Z,96277.56
2023-01-19T16:14:30.091Z,96441.78
2023-01-19T16:19:33.492Z,96326.97
2023-01-19T16:24:36.805Z,96435.84
2023-01-19T16:29:40.365Z,96338.41
2023-01-19T16:34:53.918Z,96332.63
2023-01-19T16:39:57.305Z,96320.06
2023-01-19T16:45:01.369Z,96371.31
2023-01-19T16:50:12.376Z,96319.44
2023-01-19T16:55:15.894Z,96430.56
2023-01-19T17:00:19.499Z,96246.16
2023-01-19T17:05:23.313Z,96440.63
2023-01-19T17:10:26.561Z,96367.06
2023-01-19T17:15:31.811Z,96444.72
2023-01-19T17:20:45.145Z,96479.69
2023-01-19T17:25:55.686Z,96458.16
2023-01-19T17:31:08.047Z,96452.72
2023-01-19T17:36:14.538Z,96495.81
2023-01-19T17:41:36.863Z,96486.25
2023-01-19T17:46:50.486Z,96418.88
2023-01-19T17:51:55.502Z,96503.25
2023-01-19T17:57:09.621Z,96497.19
2023-01-19T18:02:13.057Z,96450.28
2023-01-19T18:07:16.655Z,96453.47
2023-01-19T18:12:20.986Z,96507.69
2023-01-19T18:17:24.381Z,96363.13
2023-01-19T18:22:27.599Z,96255.88
2023-01-19T18:27:31.125Z,96472.75
2023-01-19T18:32:35.721Z,96518.41
2023-01-19T18:37:39.260Z,96399.34
2023-01-19T18:42:42.613Z,96435.69
2023-01-19T18:47:46.069Z,96307.50
2023-01-19T18:52:52.262Z,96357.50
2023-01-19T18:58:13.374Z,96477.06
2023-01-19T19:03:34.448Z,96474.00
2023-01-19T19:08:40.806Z,96211.03
2023-01-19T19:14:03.145Z,96485.50
2023-01-19T19:19:24.359Z,96480.72
2023-01-19T19:24:45.477Z,96478.25
2023-01-19T19:30:07.167Z,96446.59
2023-01-19T19:35:28.833Z,96446.16
2023-01-19T19:40:49.867Z,96472.13
2023-01-19T19:46:16.303Z,96476.31
2023-01-19T19:51:37.369Z,96475.63
2023-01-19T19:56:40.849Z,96485.56
2023-01-19T20:01:45.999Z,96415.69
2023-01-19T20:06:49.802Z,96511.69
2023-01-19T20:11:53.725Z,96448.09
2023-01-19T20:16:57.090Z,96472.75
2023-01-19T20:22:00.428Z,96448.81
2023-01-19T20:27:03.732Z,96271.97
2023-01-19T20:32:07.162Z,96501.72
2023-01-19T20:37:11.035Z,96521.25
2023-01-19T20:42:17.405Z,96323.13
2023-01-19T20:47:30.849Z,96434.03
2023-01-19T20:52:36.696Z,96539.91
2023-01-19T20:57:41.183Z,96485.09
2023-01-19T21:02:54.621Z,96471.28
2023-01-19T21:07:58.110Z,96393.63
2023-01-19T21:13:01.603Z,96512.31
2023-01-19T21:18:05.224Z,96473.41
2023-01-19T21:23:08.896Z,96395.13
2023-01-19T21:28:12.902Z,96315.84
2023-01-19T21:33:17.949Z,96419.34
2023-01-19T21:38:30.633Z,96522.78
2023-01-19T21:43:44.350Z,96420.94
2023-01-19T21:48:48.689Z,96519.81
2023-01-19T21:53:53.444Z,96498.38
2023-01-19T21:58:58.405Z,96509.47
2023-01-19T22:04:05.769Z,96468.75
2023-01-19T22:09:09.566Z,96498.13
2023-01-19T22:14:13.159Z,96382.19
2023-01-19T22:19:18.591Z,96494.81
2023-01-19T22:24:22.105Z,96511.22
2023-01-19T22:29:25.489Z,96310.16
2023-01-19T22:34:29.111Z,96472.31
2023-01-19T22:39:32.646Z,96468.91
2023-01-19T22:44:36.051Z,96427.41
2023-01-19T22:49:39.334Z,96356.50
2023-01-19T22:54:42.771Z,96377.72
2023-01-19T22:59:46.428Z,96415.31
2023-01-19T23:04:49.841Z,96416.78
2023-01-19T23:09:53.411Z,96298.50
2023-01-19T23:14:56.820Z,96320.47
2023-01-19T23:20:00.387Z,96463.50
2023-01-19T23:25:03.695Z,96339.66
2023-01-19T23:30:07.847Z,96380.66
2023-01-19T23:35:12.728Z,96400.56
2023-01-19T23:40:16.398Z,96456.03
2023-01-19T23:45:20.878Z,96416.31
2023-01-19T23:50:24.234Z,96423.84
2023-01-19T23:55:28.251Z,96420.16
